createdAt,value
2023-05-19T00:01:53.182Z,96316.50
2023-05-19T00:03:58.888Z,96248.91
2023-05-19T00:06:03.434Z,96310.22
2023-05-19T00:08:06.818Z,96317.91
2023-05-19T00:10:11.013Z,96317.34
2023-05-19T00:12:15.141Z,96307.00
2023-05-19T00:14:18.263Z,96129.63
2023-05-19T00:16:23.669Z,96303.00
2023-05-19T00:18:26.528Z,96283.94
2023-05-19T00:20:29.401Z,96304.22
2023-05-19T00:22:32.194Z,96235.06
2023-05-19T00:24:35.264Z,96311.88
2023-05-19T00:26:38.026Z,96308.06
2023-05-19T00:28:42.786Z,96307.63
2023-05-19T00:30:45.914Z,96303.22
2023-05-19T00:32:50.046Z,96312.75
2023-05-19T00:34:53.757Z,96253.75
2023-05-19T00:36:56.547Z,96241.50
2023-05-19T00:38:59.292Z,96305.38
2023-05-19T00:41:02.876Z,96296.91
2023-05-19T00:43:08.330Z,96299.31
2023-05-19T00:45:11.618Z,96284.41
2023-05-19T00:47:14.374Z,96302.91
2023-05-19T00:49:18.428Z,96289.81
2023-05-19T00:51:21.300Z,96303.16
2023-05-19T00:53:24.544Z,96292.50
2023-05-19T00:55:30.122Z,96288.91
2023-05-19T00:57:32.852Z,96284.09
2023-05-19T00:59:37.220Z,96216.66
2023-05-19T01:01:40.177Z,96107.50
2023-05-19T01:03:44.348Z,96285.31
2023-05-19T01:05:49.791Z,96292.66
2023-05-19T01:07:53.580Z,96243.31
2023-05-19T01:09:57.156Z,96287.75
2023-05-19T01:12:00.652Z,96285.16
2023-05-19T01:14:03.682Z,96291.63
2023-05-19T01:16:12.481Z,96285.78
2023-05-19T01:18:20.758Z,96285.25
2023-05-19T01:20:29.127Z,96291.50
2023-05-19T01:23:02.769Z,96296.28
2023-05-19T01:25:49.560Z,96275.31
2023-05-19T01:28:23.203Z,96301.66
2023-05-19T01:30:34.890Z,96301.16
2023-05-19T01:32:40.798Z,96292.38
2023-05-19T01:34:47.608Z,96290.91
2023-05-19T01:36:52.254Z,96292.16
2023-05-19T01:38:57.193Z,96232.72
2023-05-19T01:41:01.340Z,96290.81
2023-05-19T01:43:04.802Z,96278.91
2023-05-19T01:45:10.382Z,96269.91
2023-05-19T01:47:15.396Z,96286.59
2023-05-19T01:49:18.680Z,96291.09
2023-05-19T01:51:21.468Z,96280.56
2023-05-19T01:53:25.090Z,96296.59
2023-05-19T01:55:28.094Z,96284.56
2023-05-19T01:57:41.579Z,96233.94
2023-05-19T01:59:53.495Z,96286.88
2023-05-19T02:02:00.421Z,96228.38
2023-05-19T02:04:19.212Z,96293.66
2023-05-19T02:06:33.872Z,96287.88
2023-05-19T02:08:45.088Z,96265.75
2023-05-19T02:10:56.115Z,96289.94
2023-05-19T02:13:02.386Z,96224.03
2023-05-19T02:15:08.276Z,96286.38
2023-05-19T02:17:13.831Z,96289.72
2023-05-19T02:19:25.507Z,96243.75
2023-05-19T02:21:31.141Z,96283.69
2023-05-19T02:23:33.920Z,96285.34
2023-05-19T02:25:36.673Z,96292.91
2023-05-19T02:27:40.100Z,96284.97
2023-05-19T02:29:42.849Z,96294.41
2023-05-19T02:31:46.788Z,96288.28
2023-05-19T02:33:49.563Z,96285.16
2023-05-19T02:35:53.964Z,96272.06
2023-05-19T02:37:57.285Z,96255.59
2023-05-19T02:40:00.047Z,96277.03
2023-05-19T02:42:02.834Z,96277.78
2023-05-19T02:44:06.422Z,96276.28
2023-05-19T02:46:09.741Z,96276.34
2023-05-19T02:48:12.687Z,96276.09
2023-05-19T02:50:15.485Z,96267.91
2023-05-19T02:52:19.621Z,96273.81
2023-05-19T02:54:22.522Z,96274.47
2023-05-19T02:56:26.406Z,96270.75
2023-05-19T02:58:29.228Z,96268.22
2023-05-19T03:00:32.371Z,96272.75
2023-05-19T03:02:35.440Z,96262.38
2023-05-19T03:04:42.222Z,96273.22
2023-05-19T03:06:45.735Z,96273.31
2023-05-19T03:08:50.042Z,96282.63
2023-05-19T03:10:52.782Z,96269.88
2023-05-19T03:12:55.538Z,96260.78
2023-05-19T03:14:58.333Z,96271.41
2023-05-19T03:17:01.750Z,96268.41
2023-05-19T03:19:04.611Z,96277.34
2023-05-19T03:21:07.399Z,96262.22
2023-05-19T03:23:10.463Z,96273.63
2023-05-19T03:25:14.679Z,96274.78
2023-05-19T03:27:17.997Z,96271.59
2023-05-19T03:29:21.491Z,96277.91
2023-05-19T03:31:24.515Z,96276.88
2023-05-19T03:33:29.787Z,96278.63
2023-05-19T03:35:33.045Z,96281.84
2023-05-19T03:37:35.920Z,96256.44
2023-05-19T03:39:39.222Z,96287.22
2023-05-19T03:41:43.661Z,96285.31
2023-05-19T03:43:46.591Z,96287.41
2023-05-19T03:45:49.458Z,96271.34
2023-05-19T03:48:26.730Z,96286.06
2023-05-19T03:50:58.006Z,96288.63
2023-05-19T03:53:02.785Z,96284.13
2023-05-19T03:55:09.945Z,96290.91
2023-05-19T03:57:15.029Z,96292.19
2023-05-19T03:59:17.910Z,96291.25
2023-05-19T04:01:20.663Z,96284.94
2023-05-19T04:03:23.576Z,96282.13
2023-05-19T04:05:26.726Z,96286.38
2023-05-19T04:07:29.929Z,96281.66
2023-05-19T04:09:35.207Z,96282.72
2023-05-19T04:11:38.989Z,96281.97
2023-05-19T04:13:44.497Z,96288.41
2023-05-19T04:15:48.563Z,96287.34
2023-05-19T04:17:51.553Z,96280.50
2023-05-19T04:19:54.575Z,96283.91
2023-05-19T04:21:58.205Z,96288.16
2023-05-19T04:24:01.091Z,96284.34
2023-05-19T04:26:06.900Z,96282.34
2023-05-19T04:28:09.796Z,96283.38
2023-05-19T04:30:22.346Z,96280.53
2023-05-19T04:32:26.329Z,96287.75
2023-05-19T04:34:30.762Z,96264.75
2023-05-19T04:36:34.067Z,96281.56
2023-05-19T04:38:39.908Z,96282.88
2023-05-19T04:40:44.581Z,96281.91
2023-05-19T04:42:49.862Z,96177.25
2023-05-19T04:44:52.680Z,96283.22
2023-05-19T04:46:58.937Z,96276.59
2023-05-19T04:49:02.259Z,96256.66
2023-05-19T04:51:05.591Z,96266.53
2023-05-19T04:53:08.420Z,96288.28
2023-05-19T04:55:13.072Z,96284.75
2023-05-19T04:57:16.158Z,96192.41
2023-05-19T04:59:18.941Z,96276.78
2023-05-19T05:01:25.900Z,96281.72
2023-05-19T05:03:33.164Z,96263.97
2023-05-19T05:05:36.782Z,96279.59
2023-05-19T05:07:39.620Z,96277.34
2023-05-19T05:09:42.554Z,96270.97
2023-05-19T05:11:47.585Z,96273.66
2023-05-19T05:13:50.962Z,96273.94
2023-05-19T05:15:54.377Z,96273.13
2023-05-19T05:17:58.424Z,96274.00
2023-05-19T05:20:04.576Z,96273.44
2023-05-19T05:22:08.017Z,96274.88
2023-05-19T05:24:15.398Z,96274.81
2023-05-19T05:26:23.732Z,96195.28
2023-05-19T05:28:31.436Z,96280.66
2023-05-19T05:30:35.569Z,96271.41
2023-05-19T05:32:39.701Z,96272.03
2023-05-19T05:34:48.858Z,96184.03
2023-05-19T05:36:53.607Z,96279.97
2023-05-19T05:38:56.498Z,96215.22
2023-05-19T05:40:59.515Z,96242.59
2023-05-19T05:43:02.270Z,96251.00
2023-05-19T05:45:09.150Z,96290.59
2023-05-19T05:47:13.744Z,96289.78
2023-05-19T05:49:17.083Z,96283.44
2023-05-19T05:51:23.176Z,96290.19
2023-05-19T05:53:32.243Z,96291.59
2023-05-19T05:55:37.615Z,96252.47
2023-05-19T05:57:42.598Z,96297.59
2023-05-19T05:59:47.156Z,96291.25
2023-05-19T06:01:50.638Z,96288.97
2023-05-19T06:03:55.096Z,96284.59
2023-05-19T06:05:59.675Z,96287.50
2023-05-19T06:08:02.746Z,96296.28
2023-05-19T06:10:08.842Z,96291.22
2023-05-19T06:12:12.087Z,96289.78
2023-05-19T06:14:20.588Z,96287.59
2023-05-19T06:16:42.221Z,96279.84
2023-05-19T06:18:45.471Z,96020.69
2023-05-19T06:20:48.275Z,96237.81
2023-05-19T06:22:51.173Z,96286.81
2023-05-19T06:24:56.302Z,96291.75
2023-05-19T06:27:00.471Z,96286.25
2023-05-19T06:29:03.238Z,96288.59
2023-05-19T06:31:06.174Z,96279.16
2023-05-19T06:33:23.173Z,96281.63
2023-05-19T06:35:26.057Z,96288.91
2023-05-19T06:37:28.829Z,96291.41
2023-05-19T06:39:31.863Z,96282.91
2023-05-19T06:41:36.300Z,96270.00
2023-05-19T06:43:40.632Z,96302.03
2023-05-19T06:45:44.324Z,96175.44
2023-05-19T06:47:47.648Z,96290.06
2023-05-19T06:49:55.127Z,96295.25
2023-05-19T06:52:01.319Z,96284.59
2023-05-19T06:54:04.156Z,96260.34
2023-05-19T06:56:07.995Z,96289.78
2023-05-19T06:58:12.884Z,96194.44
2023-05-19T07:00:19.948Z,96298.47
2023-05-19T07:02:26.542Z,96289.69
2023-05-19T07:04:29.515Z,96296.84
2023-05-19T07:06:33.876Z,96289.28
2023-05-19T07:08:37.250Z,96285.09
2023-05-19T07:10:41.776Z,96279.59
2023-05-19T07:12:48.436Z,96283.56
2023-05-19T07:14:53.546Z,96286.44
2023-05-19T07:16:58.093Z,96287.56
2023-05-19T07:19:00.892Z,96227.03
2023-05-19T07:21:03.791Z,96282.16
2023-05-19T07:23:07.359Z,96276.63
2023-05-19T07:25:11.595Z,96178.72
2023-05-19T07:27:16.264Z,96282.16
2023-05-19T07:29:19.016Z,96276.81
2023-05-19T07:31:21.762Z,96283.03
2023-05-19T07:33:26.974Z,96290.41
2023-05-19T07:35:29.746Z,96280.63
2023-05-19T07:37:32.570Z,96288.22
2023-05-19T07:39:36.704Z,96272.50
2023-05-19T07:41:39.476Z,96275.50
2023-05-19T07:43:42.276Z,96275.53
2023-05-19T07:45:45.075Z,96282.53
2023-05-19T07:47:47.971Z,96284.88
2023-05-19T07:49:52.181Z,96291.31
2023-05-19T07:51:55.148Z,96286.41
2023-05-19T07:53:58.277Z,96285.28
2023-05-19T07:56:01.051Z,96256.09
2023-05-19T07:58:03.731Z,96283.72
2023-05-19T08:00:11.530Z,96277.78
2023-05-19T08:02:17.679Z,96278.25
2023-05-19T08:04:20.595Z,96234.75
2023-05-19T08:06:25.284Z,96276.50
2023-05-19T08:08:28.139Z,96277.75
2023-05-19T08:10:31.452Z,96274.94
2023-05-19T08:12:34.366Z,96272.97
2023-05-19T08:14:37.388Z,96274.22
2023-05-19T08:16:41.815Z,96269.50
2023-05-19T08:18:44.608Z,96274.84
2023-05-19T08:20:47.470Z,96267.06
2023-05-19T08:22:51.740Z,96274.41
2023-05-19T08:24:54.514Z,96267.53
2023-05-19T08:26:57.293Z,96265.91
2023-05-19T08:29:00.157Z,96263.44
2023-05-19T08:31:03.019Z,96260.22
2023-05-19T08:33:06.360Z,96265.91
2023-05-19T08:35:10.325Z,96255.09
2023-05-19T08:37:13.184Z,96257.84
2023-05-19T08:39:19.578Z,96256.78
2023-05-19T08:41:23.246Z,96253.78
2023-05-19T08:43:26.247Z,96249.50
2023-05-19T08:45:29.807Z,96248.72
2023-05-19T08:47:34.176Z,96247.66
2023-05-19T08:49:44.780Z,96241.47
2023-05-19T08:51:56.219Z,96256.31
2023-05-19T08:54:10.135Z,96243.94
2023-05-19T08:56:17.722Z,96235.34
2023-05-19T08:58:21.683Z,96156.81
2023-05-19T09:00:25.487Z,96242.91
2023-05-19T09:02:28.904Z,96239.19
2023-05-19T09:04:33.007Z,96241.31
2023-05-19T09:06:35.860Z,96242.16
2023-05-19T09:08:38.646Z,96235.97
2023-05-19T09:10:41.412Z,96245.69
2023-05-19T09:12:48.842Z,96206.44
2023-05-19T09:14:51.662Z,96239.75
2023-05-19T09:16:55.175Z,96240.31
2023-05-19T09:19:01.018Z,96243.00
2023-05-19T09:21:03.892Z,96201.88
2023-05-19T09:23:07.795Z,96248.97
2023-05-19T09:25:19.328Z,96135.31
2023-05-19T09:27:23.621Z,96248.41
2023-05-19T09:29:27.738Z,96244.06
2023-05-19T09:31:33.667Z,96249.47
2023-05-19T09:33:37.650Z,96230.72
2023-05-19T09:35:40.586Z,96122.28
2023-05-19T09:37:44.175Z,96240.50
2023-05-19T09:39:49.192Z,96233.75
2023-05-19T09:41:52.805Z,96235.91
2023-05-19T09:43:56.184Z,96237.00
2023-05-19T09:46:04.604Z,96231.03
2023-05-19T09:48:08.251Z,96232.97
2023-05-19T09:50:12.706Z,96237.81
2023-05-19T09:52:17.036Z,96234.00
2023-05-19T09:54:21.738Z,96232.16
2023-05-19T09:56:25.439Z,96235.97
2023-05-19T09:58:28.183Z,96227.31
2023-05-19T10:00:33.832Z,96235.44
2023-05-19T10:02:41.239Z,96234.63
2023-05-19T10:04:44.893Z,96243.56
2023-05-19T10:06:53.417Z,96233.81
2023-05-19T10:08:56.760Z,96235.16
2023-05-19T10:11:00.164Z,96230.03
2023-05-19T10:13:04.070Z,96239.75
2023-05-19T10:15:09.963Z,96166.44
2023-05-19T10:17:14.379Z,96229.75
2023-05-19T10:19:21.716Z,96232.47
2023-05-19T10:21:24.506Z,96226.78
2023-05-19T10:23:27.624Z,96225.97
2023-05-19T10:25:32.835Z,96079.66
2023-05-19T10:27:37.785Z,96234.88
2023-05-19T10:29:46.685Z,96229.75
2023-05-19T10:31:53.037Z,96233.25
2023-05-19T10:34:13.814Z,96196.19
2023-05-19T10:36:40.181Z,96240.84
2023-05-19T10:38:49.634Z,96237.06
2023-05-19T10:40:59.085Z,96203.25
2023-05-19T10:43:18.311Z,96238.69
2023-05-19T10:45:23.518Z,96235.44
2023-05-19T10:47:26.963Z,96231.63
2023-05-19T10:49:29.918Z,96236.78
2023-05-19T10:51:36.060Z,96246.78
2023-05-19T10:53:46.381Z,96240.84
2023-05-19T10:55:55.975Z,96229.22
2023-05-19T10:57:58.762Z,96238.94
2023-05-19T11:00:11.271Z,96229.47
2023-05-19T11:02:39.735Z,96240.84
2023-05-19T11:04:51.854Z,96241.34
2023-05-19T11:06:57.770Z,96235.63
2023-05-19T11:09:02.400Z,96209.38
2023-05-19T11:11:14.441Z,96234.78
2023-05-19T11:13:22.998Z,96233.19
2023-05-19T11:15:28.140Z,96231.03
2023-05-19T11:17:31.795Z,96242.41
2023-05-19T11:19:37.057Z,96242.66
2023-05-19T11:21:43.888Z,96239.75
2023-05-19T11:23:48.066Z,96239.19
2023-05-19T11:25:53.812Z,96236.50
2023-05-19T11:27:57.546Z,96244.09
2023-05-19T11:30:01.916Z,96240.31
2023-05-19T11:32:05.570Z,96230.84
2023-05-19T11:34:10.103Z,96231.09
2023-05-19T11:36:13.550Z,96226.50
2023-05-19T11:38:16.544Z,96228.94
2023-05-19T11:40:22.969Z,96213.50
2023-05-19T11:42:25.814Z,96226.75
2023-05-19T11:44:28.607Z,96228.41
2023-05-19T11:46:32.704Z,96222.97
2023-05-19T11:48:35.916Z,96154.56
2023-05-19T11:50:38.895Z,96231.09
2023-05-19T11:52:45.767Z,96240.84
2023-05-19T11:54:49.688Z,96238.69
2023-05-19T11:56:55.416Z,96234.63
2023-05-19T11:58:58.168Z,96231.09
2023-05-19T12:01:05.086Z,96221.63
2023-05-19T12:03:08.964Z,96228.41
2023-05-19T12:05:19.495Z,96225.13
2023-05-19T12:07:24.432Z,96227.31
2023-05-19T12:09:29.481Z,96221.09
2023-05-19T12:11:32.783Z,96227.28
2023-05-19T12:13:37.243Z,96172.09
2023-05-19T12:15:40.083Z,96235.44
2023-05-19T12:17:43.081Z,96229.47
2023-05-19T12:19:46.797Z,96198.91
2023-05-19T12:21:49.610Z,96234.88
2023-05-19T12:23:52.517Z,96233.53
2023-05-19T12:25:55.529Z,96238.41
2023-05-19T12:28:03.086Z,96237.00
2023-05-19T12:30:09.441Z,96232.16
2023-05-19T12:32:12.781Z,96232.66
2023-05-19T12:34:15.578Z,96235.88
2023-05-19T12:36:18.689Z,96186.16
2023-05-19T12:38:22.100Z,96239.13
2023-05-19T12:40:26.146Z,96206.16
2023-05-19T12:42:31.548Z,96240.50
2023-05-19T12:44:38.248Z,96231.06
2023-05-19T12:46:42.696Z,96234.56
2023-05-19T12:48:46.316Z,96197.56
2023-05-19T12:50:49.564Z,96243.78
2023-05-19T12:52:52.423Z,96235.69
2023-05-19T12:55:00.026Z,96241.38
2023-05-19T12:57:02.868Z,96239.75
2023-05-19T12:59:05.927Z,96216.50
2023-05-19T13:01:16.690Z,96237.84
2023-05-19T13:03:22.095Z,96241.34
2023-05-19T13:05:25.605Z,96238.09
2023-05-19T13:07:28.471Z,96235.91
2023-05-19T13:09:38.003Z,96236.69
2023-05-19T13:11:40.796Z,96235.91
2023-05-19T13:13:43.620Z,96229.19
2023-05-19T13:15:48.970Z,96230.53
2023-05-19T13:17:53.005Z,96234.84
2023-05-19T13:19:57.204Z,96225.94
2023-05-19T13:22:00.006Z,96236.25
2023-05-19T13:24:04.430Z,96227.31
2023-05-19T13:26:07.808Z,96231.91
2023-05-19T13:28:10.980Z,96228.41
2023-05-19T13:30:13.997Z,96225.94
2023-05-19T13:32:16.772Z,96229.44
2023-05-19T13:34:19.767Z,96207.22
2023-05-19T13:36:23.890Z,96219.91
2023-05-19T13:38:26.736Z,96224.22
2023-05-19T13:40:32.799Z,96214.22
2023-05-19T13:42:35.943Z,96185.31
2023-05-19T13:44:38.704Z,96211.69
2023-05-19T13:46:45.525Z,96221.72
2023-05-19T13:48:49.692Z,96190.66
2023-05-19T13:50:54.369Z,96213.13
2023-05-19T13:52:58.508Z,96183.91
2023-05-19T13:55:01.341Z,96204.94
2023-05-19T13:57:04.115Z,96103.38
2023-05-19T13:59:07.106Z,96214.28
2023-05-19T14:01:10.181Z,96208.25
2023-05-19T14:03:13.508Z,96203.38
2023-05-19T14:05:16.400Z,96136.91
2023-05-19T14:07:19.618Z,96206.13
2023-05-19T14:09:23.949Z,96198.50
2023-05-19T14:11:26.992Z,96071.00
2023-05-19T14:13:34.734Z,96203.44
2023-05-19T14:15:39.315Z,96122.34
2023-05-19T14:17:44.836Z,96056.13
2023-05-19T14:19:47.693Z,96194.69
2023-05-19T14:21:51.551Z,96105.56
2023-05-19T14:23:54.432Z,96178.53
2023-05-19T14:25:58.629Z,96118.53
2023-05-19T14:28:01.863Z,96190.91
2023-05-19T14:30:06.367Z,96117.94
2023-05-19T14:32:09.273Z,96188.47
2023-05-19T14:34:12.119Z,96194.72
2023-05-19T14:36:15.002Z,96194.16
2023-05-19T14:38:17.774Z,96197.44
2023-05-19T14:40:20.766Z,96122.56
2023-05-19T14:42:25.562Z,96146.94
2023-05-19T14:44:31.634Z,96082.34
2023-05-19T14:46:34.476Z,96202.94
2023-05-19T14:48:37.334Z,96194.28
2023-05-19T14:50:40.182Z,96205.91
2023-05-19T14:52:43.048Z,96198.03
2023-05-19T14:54:45.787Z,96199.13
2023-05-19T14:56:48.718Z,96204.56
2023-05-19T14:58:52.854Z,96119.69
2023-05-19T15:00:55.678Z,96206.19
2023-05-19T15:02:58.428Z,96206.75
2023-05-19T15:05:01.173Z,96198.63
2023-05-19T15:09:10.677Z,96198.09
2023-05-19T15:11:13.492Z,96198.63
2023-05-19T15:13:18.724Z,96191.06
2023-05-19T15:15:22.867Z,96197.03
2023-05-19T15:17:25.623Z,96194.84
2023-05-19T15:19:28.434Z,96185.63
2023-05-19T15:21:31.203Z,96169.16
2023-05-19T15:23:34.012Z,96187.28
2023-05-19T15:25:36.773Z,96203.47
2023-05-19T15:27:39.624Z,96185.56
2023-05-19T15:29:42.573Z,96185.91
2023-05-19T15:31:46.710Z,96166.97
2023-05-19T15:33:49.542Z,96161.88
2023-05-19T15:35:52.448Z,96171.59
2023-05-19T15:37:55.222Z,96177.00
2023-05-19T15:39:57.986Z,96179.97
2023-05-19T15:42:00.745Z,96177.28
2023-05-19T15:44:03.687Z,96176.44
2023-05-19T15:46:06.617Z,96175.34
2023-05-19T15:48:11.412Z,96173.69
2023-05-19T15:50:14.961Z,96164.75
2023-05-19T15:52:19.587Z,96177.25
2023-05-19T15:54:22.368Z,96171.03
2023-05-19T15:56:25.152Z,96174.81
2023-05-19T15:58:27.872Z,96169.94
2023-05-19T16:00:30.731Z,96172.91
2023-05-19T16:02:33.666Z,96166.94
2023-05-19T16:04:37.803Z,96174.81
2023-05-19T16:06:40.579Z,95934.31
2023-05-19T16:08:43.309Z,96165.88
2023-05-19T16:10:46.068Z,96161.25
2023-05-19T16:12:48.794Z,96155.81
2023-05-19T16:14:51.538Z,96040.72
2023-05-19T16:16:54.257Z,96160.78
2023-05-19T16:18:57.059Z,96161.81
2023-05-19T16:21:01.444Z,96153.19
2023-05-19T16:23:04.191Z,96152.66
2023-05-19T16:25:08.626Z,96112.09
2023-05-19T16:27:11.514Z,96147.22
2023-05-19T16:29:14.265Z,96135.63
2023-05-19T16:31:16.980Z,96143.19
2023-05-19T16:33:19.692Z,96140.22
2023-05-19T16:35:22.533Z,96146.19
2023-05-19T16:37:26.764Z,96119.09
2023-05-19T16:39:29.467Z,96147.78
2023-05-19T16:41:32.242Z,96139.63
2023-05-19T16:43:35.937Z,96131.22
2023-05-19T16:45:38.999Z,96139.31
2023-05-19T16:47:41.778Z,96132.31
2023-05-19T16:49:44.508Z,96134.75
2023-05-19T16:51:48.854Z,96127.97
2023-05-19T16:53:53.168Z,96116.09
2023-05-19T16:55:55.889Z,96132.84
2023-05-19T16:57:59.311Z,96138.50
2023-05-19T17:00:03.400Z,96127.97
2023-05-19T17:02:06.272Z,96126.13
2023-05-19T17:04:09.207Z,96090.16
2023-05-19T17:06:11.973Z,96090.41
2023-05-19T17:08:14.716Z,96127.97
2023-05-19T17:10:18.782Z,96126.13
2023-05-19T17:12:21.517Z,96125.59
2023-05-19T17:14:24.226Z,96128.56
2023-05-19T17:16:27.023Z,96132.09
2023-05-19T17:18:30.432Z,96123.94
2023-05-19T17:20:33.410Z,96130.75
2023-05-19T17:22:36.538Z,96097.22
2023-05-19T17:24:39.313Z,96124.28
2023-05-19T17:26:43.384Z,96126.16
2023-05-19T17:28:46.233Z,95975.63
2023-05-19T17:30:49.167Z,96083.69
2023-05-19T17:32:52.213Z,96125.34
2023-05-19T17:34:55.619Z,96090.47
2023-05-19T17:36:58.334Z,95999.66
2023-05-19T17:39:01.122Z,96033.16
2023-05-19T17:41:09.516Z,96125.28
2023-05-19T17:43:13.602Z,96123.44
2023-05-19T17:45:16.420Z,96124.75
2023-05-19T17:47:19.149Z,96126.69
2023-05-19T17:49:22.984Z,96126.97
2023-05-19T17:51:26.352Z,96126.41
2023-05-19T17:53:29.592Z,96117.78
2023-05-19T17:55:32.949Z,96126.97
2023-05-19T17:57:36.469Z,96119.13
2023-05-19T17:59:41.275Z,96125.63
2023-05-19T18:01:44.412Z,96122.38
2023-05-19T18:03:50.100Z,96120.72
2023-05-19T18:05:53.527Z,96122.63
2023-05-19T18:07:58.298Z,96062.63
2023-05-19T18:10:01.521Z,96122.63
2023-05-19T18:12:05.271Z,96122.09
2023-05-19T18:14:07.978Z,96126.69
2023-05-19T18:16:13.012Z,96119.94
2023-05-19T18:18:16.254Z,96121.81
2023-05-19T18:20:19.379Z,96119.59
2023-05-19T18:22:22.109Z,96081.75
2023-05-19T18:24:24.961Z,96125.81
2023-05-19T18:26:27.753Z,96120.72
2023-05-19T18:28:30.547Z,96112.56
2023-05-19T18:30:33.518Z,96095.75
2023-05-19T18:32:38.114Z,96110.41
2023-05-19T18:34:40.832Z,96110.16
2023-05-19T18:36:43.547Z,96097.75
2023-05-19T18:38:47.351Z,96097.38
2023-05-19T18:40:50.115Z,95982.91
2023-05-19T18:42:52.846Z,96061.69
2023-05-19T18:44:55.586Z,96114.00
2023-05-19T18:46:58.298Z,96119.81
2023-05-19T18:49:03.673Z,96100.75
2023-05-19T18:51:07.275Z,96112.44
2023-05-19T18:53:10.010Z,96114.72
2023-05-19T18:55:12.726Z,96116.53
2023-05-19T18:57:15.718Z,96115.19
2023-05-19T18:59:18.444Z,96108.44
2023-05-19T19:01:21.176Z,96118.66
2023-05-19T19:03:24.116Z,96106.09
2023-05-19T19:05:28.328Z,96115.66
2023-05-19T19:07:31.430Z,96105.75
2023-05-19T19:09:34.100Z,96113.50
2023-05-19T19:11:36.817Z,96121.06
2023-05-19T19:13:39.781Z,96117.88
2023-05-19T19:15:44.050Z,96029.31
2023-05-19T19:17:47.043Z,96122.06
2023-05-19T19:19:49.799Z,96126.16
2023-05-19T19:21:54.001Z,96083.16
2023-05-19T19:23:58.115Z,96122.91
2023-05-19T19:26:01.180Z,96116.34
2023-05-19T19:28:03.981Z,96119.00
2023-05-19T19:30:08.158Z,95948.41
2023-05-19T19:32:11.200Z,96125.38
2023-05-19T19:34:14.024Z,96094.53
2023-05-19T19:36:16.757Z,96121.63
2023-05-19T19:38:20.830Z,96085.47
2023-05-19T19:40:24.836Z,96120.06
2023-05-19T19:42:27.591Z,96115.19
2023-05-19T19:44:30.369Z,96112.94
2023-05-19T19:46:33.165Z,96108.00
2023-05-19T19:48:36.135Z,96102.50
2023-05-19T19:50:39.120Z,96101.00
2023-05-19T19:52:41.829Z,96084.09
2023-05-19T19:54:45.891Z,96109.31
2023-05-19T19:56:48.549Z,96111.25
2023-05-19T19:58:51.845Z,96114.56
2023-05-19T20:00:58.280Z,96107.31
2023-05-19T20:03:04.990Z,96119.56
2023-05-19T20:05:08.744Z,96070.22
2023-05-19T20:07:11.584Z,96124.38
2023-05-19T20:09:14.361Z,96123.50
2023-05-19T20:11:18.431Z,96116.50
2023-05-19T20:13:21.257Z,96123.00
2023-05-19T20:15:23.967Z,96115.00
2023-05-19T20:17:26.873Z,96110.75
2023-05-19T20:19:29.782Z,96088.09
2023-05-19T20:21:32.651Z,96108.13
2023-05-19T20:23:35.842Z,96109.78
2023-05-19T20:25:58.546Z,96110.00
2023-05-19T20:28:06.828Z,96113.00
2023-05-19T20:30:10.251Z,96006.81
2023-05-19T20:32:12.981Z,96109.03
2023-05-19T20:34:15.749Z,96106.31
2023-05-19T20:36:18.487Z,96090.47
2023-05-19T20:38:21.309Z,96056.28
2023-05-19T20:40:24.129Z,96110.31
2023-05-19T20:42:26.988Z,96104.38
2023-05-19T20:44:31.098Z,96103.81
2023-05-19T20:46:34.017Z,96086.31
2023-05-19T20:48:37.021Z,96094.94
2023-05-19T20:50:40.511Z,96105.56
2023-05-19T20:52:43.329Z,96103.16
2023-05-19T20:54:46.348Z,96100.31
2023-05-19T20:56:49.121Z,95980.19
2023-05-19T20:58:51.936Z,96098.09
2023-05-19T21:00:57.724Z,96097.91
2023-05-19T21:03:01.394Z,95941.97
2023-05-19T21:05:04.685Z,96057.97
2023-05-19T21:07:07.562Z,96091.91
2023-05-19T21:09:10.787Z,96055.34
2023-05-19T21:11:13.628Z,96097.56
2023-05-19T21:13:16.406Z,96093.00
2023-05-19T21:15:19.396Z,96087.50
2023-05-19T21:17:23.499Z,96094.84
2023-05-19T21:19:26.277Z,96080.00
2023-05-19T21:21:29.350Z,96089.53
2023-05-19T21:23:32.121Z,96104.94
2023-05-19T21:25:34.896Z,96091.13
2023-05-19T21:27:39.422Z,96078.94
2023-05-19T21:29:42.200Z,96075.13
2023-05-19T21:31:45.009Z,96074.78
2023-05-19T21:33:49.136Z,96017.09
2023-05-19T21:35:51.879Z,96067.59
2023-05-19T21:37:54.646Z,96069.88
2023-05-19T21:39:57.434Z,96063.63
2023-05-19T21:42:00.197Z,96068.84
2023-05-19T21:44:03.510Z,95881.91
2023-05-19T21:46:06.441Z,96037.59
2023-05-19T21:48:09.226Z,96034.31
2023-05-19T21:50:15.691Z,96053.72
2023-05-19T21:52:18.958Z,96060.91
2023-05-19T21:54:21.695Z,96029.00
2023-05-19T21:56:24.515Z,96055.59
2023-05-19T21:58:27.441Z,96048.69
2023-05-19T22:00:30.291Z,96056.25
2023-05-19T22:02:33.209Z,96038.28
2023-05-19T22:04:37.015Z,96038.34
2023-05-19T22:06:41.275Z,96045.13
2023-05-19T22:08:44.036Z,96047.28
2023-05-19T22:10:50.053Z,96037.59
2023-05-19T22:12:52.901Z,96042.84
2023-05-19T22:14:56.035Z,96015.88
2023-05-19T22:16:58.811Z,96037.56
2023-05-19T22:19:01.706Z,96036.50
2023-05-19T22:21:04.564Z,96037.88
2023-05-19T22:23:08.875Z,95969.75
2023-05-19T22:25:11.625Z,96023.00
2023-05-19T22:27:14.428Z,96022.22
2023-05-19T22:29:18.560Z,95967.03
2023-05-19T22:31:21.528Z,96027.59
2023-05-19T22:33:24.302Z,96030.50
2023-05-19T22:35:27.336Z,96032.69
2023-05-19T22:37:30.165Z,96026.38
2023-05-19T22:39:34.384Z,95897.09
2023-05-19T22:41:37.169Z,96022.81
2023-05-19T22:43:39.957Z,96019.59
2023-05-19T22:45:42.900Z,95987.03
2023-05-19T22:47:55.623Z,95906.38
2023-05-19T22:49:58.461Z,96009.03
2023-05-19T22:52:01.287Z,96008.25
2023-05-19T22:54:04.255Z,96013.13
2023-05-19T22:56:08.605Z,96010.41
2023-05-19T22:58:11.383Z,96015.81
2023-05-19T23:00:14.748Z,96012.84
2023-05-19T23:02:17.506Z,96004.50
2023-05-19T23:04:20.345Z,96019.06
2023-05-19T23:06:23.198Z,96014.19
2023-05-19T23:08:25.974Z,96005.81
2023-05-19T23:10:28.841Z,96013.06
2023-05-19T23:12:32.946Z,96007.69
2023-05-19T23:14:35.796Z,96010.94
2023-05-19T23:16:38.613Z,96005.28
2023-05-19T23:18:41.732Z,95989.88
2023-05-19T23:20:44.501Z,95994.00
2023-05-19T23:22:47.274Z,96006.09
2023-05-19T23:24:50.059Z,95999.09
2023-05-19T23:26:54.505Z,95884.34
2023-05-19T23:28:58.634Z,95996.91
2023-05-19T23:31:01.528Z,95998.53
2023-05-19T23:33:04.631Z,95993.53
2023-05-19T23:35:12.384Z,95987.09
2023-05-19T23:37:15.208Z,95989.31
2023-05-19T23:39:17.930Z,95987.72
2023-05-19T23:41:21.363Z,95871.94
2023-05-19T23:43:24.115Z,95940.47
2023-05-19T23:45:28.258Z,95985.34
2023-05-19T23:47:31.263Z,95987.53
2023-05-19T23:49:34.063Z,95987.28
2023-05-19T23:51:36.811Z,95984.31
2023-05-19T23:53:39.624Z,95980.28
2023-05-19T23:55:42.440Z,95980.84
2023-05-19T23:57:45.187Z,95985.69
2023-05-19T23:59:48.163Z,95976.53
